sensor_id;sensor_type;location;lat;lon;timestamp;P1;durP1;ratioP1;P2;durP2;ratioP2
5416;SDS011;2731;50.754;12.990;2022-10-16T00:01:22;0.20;;;0.20;;
5416;SDS011;2731;50.754;12.990;2022-10-16T00:03:50;0.43;;;0.30;;
5416;SDS011;2731;50.754;12.990;2022-10-16T00:06:16;0.20;;;0.20;;
5416;SDS011;2731;50.754;12.990;2022-10-16T00:08:47;0.13;;;0.13;;
5416;SDS011;2731;50.754;12.990;2022-10-16T00:11:20;0.45;;;0.20;;
5416;SDS011;2731;50.754;12.990;2022-10-16T00:13:48;0.43;;;0.20;;
5416;SDS011;2731;50.754;12.990;2022-10-16T00:16:21;0.10;;;0.10;;
5416;SDS011;2731;50.754;12.990;2022-10-16T00:18:49;0.15;;;0.15;;
5416;SDS011;2731;50.754;12.990;2022-10-16T00:21:18;0.20;;;0.20;;
5416;SDS011;2731;50.754;12.990;2022-10-16T00:23:46;0.70;;;0.20;;
5416;SDS011;2731;50.754;12.990;2022-10-16T00:26:17;0.38;;;0.20;;
5416;SDS011;2731;50.754;12.990;2022-10-16T00:28:45;0.63;;;0.63;;
5416;SDS011;2731;50.754;12.990;2022-10-16T00:31:11;0.10;;;0.10;;
5416;SDS011;2731;50.754;12.990;2022-10-16T00:33:40;0.20;;;0.20;;
5416;SDS011;2731;50.754;12.990;2022-10-16T00:36:11;0.20;;;0.20;;
5416;SDS011;2731;50.754;12.990;2022-10-16T00:38:39;0.32;;;0.20;;
5416;SDS011;2731;50.754;12.990;2022-10-16T00:41:06;0.55;;;0.40;;
5416;SDS011;2731;50.754;12.990;2022-10-16T00:43:39;0.10;;;0.10;;
5416;SDS011;2731;50.754;12.990;2022-10-16T00:51:49;0.10;;;0.10;;
5416;SDS011;2731;50.754;12.990;2022-10-16T00:54:19;0.20;;;0.20;;
5416;SDS011;2731;50.754;12.990;2022-10-16T00:56:50;5.18;;;0.68;;
5416;SDS011;2731;50.754;12.990;2022-10-16T00:59:28;0.20;;;0.20;;
5416;SDS011;2731;50.754;12.990;2022-10-16T01:01:58;0.20;;;0.20;;
5416;SDS011;2731;50.754;12.990;2022-10-16T01:04:51;0.25;;;0.20;;
5416;SDS011;2731;50.754;12.990;2022-10-16T01:13:04;0.28;;;0.20;;
5416;SDS011;2731;50.754;12.990;2022-10-16T01:18:16;0.20;;;0.20;;
5416;SDS011;2731;50.754;12.990;2022-10-16T01:21:06;0.22;;;0.10;;
5416;SDS011;2731;50.754;12.990;2022-10-16T01:29:27;0.55;;;0.43;;
5416;SDS011;2731;50.754;12.990;2022-10-16T01:32:08;1.75;;;0.20;;
5416;SDS011;2731;50.754;12.990;2022-10-16T01:34:48;1.05;;;0.20;;
5416;SDS011;2731;50.754;12.990;2022-10-16T01:37:36;0.88;;;0.45;;
5416;SDS011;2731;50.754;12.990;2022-10-16T01:40:13;0.20;;;0.20;;
5416;SDS011;2731;50.754;12.990;2022-10-16T01:43:00;0.30;;;0.20;;
5416;SDS011;2731;50.754;12.990;2022-10-16T01:45:34;0.20;;;0.20;;
5416;SDS011;2731;50.754;12.990;2022-10-16T01:48:02;0.30;;;0.30;;
5416;SDS011;2731;50.754;12.990;2022-10-16T01:50:31;0.88;;;0.40;;
5416;SDS011;2731;50.754;12.990;2022-10-16T01:52:59;0.45;;;0.28;;
5416;SDS011;2731;50.754;12.990;2022-10-16T01:55:28;0.10;;;0.10;;
5416;SDS011;2731;50.754;12.990;2022-10-16T01:57:56;0.22;;;0.20;;
5416;SDS011;2731;50.754;12.990;2022-10-16T02:00:24;0.17;;;0.17;;
5416;SDS011;2731;50.754;12.990;2022-10-16T02:02:53;0.22;;;0.20;;
5416;SDS011;2731;50.754;12.990;2022-10-16T02:05:25;0.30;;;0.30;;
5416;SDS011;2731;50.754;12.990;2022-10-16T02:07:56;2.13;;;0.50;;
5416;SDS011;2731;50.754;12.990;2022-10-16T02:10:22;0.30;;;0.25;;
5416;SDS011;2731;50.754;12.990;2022-10-16T02:12:59;0.30;;;0.30;;
5416;SDS011;2731;50.754;12.990;2022-10-16T02:15:34;0.30;;;0.28;;
5416;SDS011;2731;50.754;12.990;2022-10-16T02:18:02;0.40;;;0.38;;
5416;SDS011;2731;50.754;12.990;2022-10-16T02:20:32;1.25;;;0.30;;
5416;SDS011;2731;50.754;12.990;2022-10-16T02:23:02;3.78;;;0.50;;
5416;SDS011;2731;50.754;12.990;2022-10-16T02:25:30;2.50;;;0.43;;
5416;SDS011;2731;50.754;12.990;2022-10-16T02:28:07;0.40;;;0.40;;
5416;SDS011;2731;50.754;12.990;2022-10-16T02:33:23;0.30;;;0.30;;
5416;SDS011;2731;50.754;12.990;2022-10-16T02:35:51;0.40;;;0.40;;
5416;SDS011;2731;50.754;12.990;2022-10-16T02:38:23;0.50;;;0.50;;
5416;SDS011;2731;50.754;12.990;2022-10-16T02:40:49;0.60;;;0.30;;
5416;SDS011;2731;50.754;12.990;2022-10-16T02:43:15;0.38;;;0.38;;
5416;SDS011;2731;50.754;12.990;2022-10-16T02:45:42;0.40;;;0.40;;
5416;SDS011;2731;50.754;12.990;2022-10-16T02:48:09;0.47;;;0.47;;
5416;SDS011;2731;50.754;12.990;2022-10-16T02:50:36;0.30;;;0.20;;
5416;SDS011;2731;50.754;12.990;2022-10-16T02:53:03;0.60;;;0.40;;
5416;SDS011;2731;50.754;12.990;2022-10-16T02:55:29;0.38;;;0.38;;
5416;SDS011;2731;50.754;12.990;2022-10-16T02:57:54;0.65;;;0.40;;
5416;SDS011;2731;50.754;12.990;2022-10-16T03:00:21;0.30;;;0.30;;
5416;SDS011;2731;50.754;12.990;2022-10-16T03:02:51;0.30;;;0.30;;
5416;SDS011;2731;50.754;12.990;2022-10-16T03:05:17;0.40;;;0.40;;
5416;SDS011;2731;50.754;12.990;2022-10-16T03:07:45;0.30;;;0.30;;
5416;SDS011;2731;50.754;12.990;2022-10-16T03:10:11;0.40;;;0.30;;
5416;SDS011;2731;50.754;12.990;2022-10-16T03:12:39;1.75;;;0.35;;
5416;SDS011;2731;50.754;12.990;2022-10-16T03:15:04;0.40;;;0.38;;
5416;SDS011;2731;50.754;12.990;2022-10-16T03:17:33;0.57;;;0.30;;
5416;SDS011;2731;50.754;12.990;2022-10-16T03:20:00;0.30;;;0.30;;
5416;SDS011;2731;50.754;12.990;2022-10-16T03:22:26;0.30;;;0.30;;
5416;SDS011;2731;50.754;12.990;2022-10-16T03:24:54;0.30;;;0.30;;
5416;SDS011;2731;50.754;12.990;2022-10-16T03:27:20;0.30;;;0.30;;
5416;SDS011;2731;50.754;12.990;2022-10-16T03:29:46;0.80;;;0.32;;
5416;SDS011;2731;50.754;12.990;2022-10-16T03:32:12;0.45;;;0.30;;
5416;SDS011;2731;50.754;12.990;2022-10-16T03:34:39;0.95;;;0.70;;
5416;SDS011;2731;50.754;12.990;2022-10-16T03:37:06;2.45;;;1.10;;
5416;SDS011;2731;50.754;12.990;2022-10-16T03:39:32;0.95;;;0.70;;
5416;SDS011;2731;50.754;12.990;2022-10-16T03:41:58;0.57;;;0.50;;
5416;SDS011;2731;50.754;12.990;2022-10-16T03:44:25;1.17;;;0.60;;
5416;SDS011;2731;50.754;12.990;2022-10-16T03:46:51;0.52;;;0.52;;
5416;SDS011;2731;50.754;12.990;2022-10-16T03:49:18;0.98;;;0.68;;
5416;SDS011;2731;50.754;12.990;2022-10-16T03:51:46;1.02;;;0.70;;
5416;SDS011;2731;50.754;12.990;2022-10-16T03:54:11;0.63;;;0.52;;
5416;SDS011;2731;50.754;12.990;2022-10-16T03:56:38;0.95;;;0.60;;
5416;SDS011;2731;50.754;12.990;2022-10-16T03:59:05;0.85;;;0.43;;
5416;SDS011;2731;50.754;12.990;2022-10-16T04:01:30;0.68;;;0.68;;
5416;SDS011;2731;50.754;12.990;2022-10-16T04:03:57;1.95;;;0.70;;
5416;SDS011;2731;50.754;12.990;2022-10-16T04:06:22;1.40;;;0.90;;
5416;SDS011;2731;50.754;12.990;2022-10-16T04:08:48;0.88;;;0.50;;
5416;SDS011;2731;50.754;12.990;2022-10-16T04:11:15;0.70;;;0.70;;
5416;SDS011;2731;50.754;12.990;2022-10-16T04:13:42;0.80;;;0.70;;
5416;SDS011;2731;50.754;12.990;2022-10-16T04:16:11;0.63;;;0.60;;
5416;SDS011;2731;50.754;12.990;2022-10-16T04:18:37;0.68;;;0.57;;
5416;SDS011;2731;50.754;12.990;2022-10-16T04:21:04;1.48;;;0.60;;
5416;SDS011;2731;50.754;12.990;2022-10-16T04:23:34;0.25;;;0.20;;
5416;SDS011;2731;50.754;12.990;2022-10-16T04:26:01;0.75;;;0.30;;
5416;SDS011;2731;50.754;12.990;2022-10-16T04:28:26;0.25;;;0.20;;
5416;SDS011;2731;50.754;12.990;2022-10-16T04:30:53;0.55;;;0.30;;
5416;SDS011;2731;50.754;12.990;2022-10-16T04:33:20;0.28;;;0.28;;
5416;SDS011;2731;50.754;12.990;2022-10-16T04:35:46;0.52;;;0.30;;
5416;SDS011;2731;50.754;12.990;2022-10-16T04:38:11;0.52;;;0.20;;
5416;SDS011;2731;50.754;12.990;2022-10-16T04:40:38;0.30;;;0.30;;
5416;SDS011;2731;50.754;12.990;2022-10-16T04:43:07;1.08;;;0.35;;
5416;SDS011;2731;50.754;12.990;2022-10-16T04:45:33;0.28;;;0.28;;
5416;SDS011;2731;50.754;12.990;2022-10-16T04:48:01;0.32;;;0.20;;
5416;SDS011;2731;50.754;12.990;2022-10-16T04:50:27;0.20;;;0.20;;
5416;SDS011;2731;50.754;12.990;2022-10-16T04:52:54;0.47;;;0.30;;
5416;SDS011;2731;50.754;12.990;2022-10-16T04:55:20;1.65;;;0.30;;
5416;SDS011;2731;50.754;12.990;2022-10-16T04:57:48;0.10;;;0.10;;
5416;SDS011;2731;50.754;12.990;2022-10-16T05:00:14;0.10;;;0.10;;
5416;SDS011;2731;50.754;12.990;2022-10-16T05:02:40;0.80;;;0.40;;
5416;SDS011;2731;50.754;12.990;2022-10-16T05:05:05;0.10;;;0.10;;
5416;SDS011;2731;50.754;12.990;2022-10-16T05:07:33;0.30;;;0.20;;
5416;SDS011;2731;50.754;12.990;2022-10-16T05:09:59;0.60;;;0.30;;
5416;SDS011;2731;50.754;12.990;2022-10-16T05:12:28;0.20;;;0.20;;
5416;SDS011;2731;50.754;12.990;2022-10-16T05:14:54;0.25;;;0.25;;
5416;SDS011;2731;50.754;12.990;2022-10-16T05:17:25;0.28;;;0.28;;
5416;SDS011;2731;50.754;12.990;2022-10-16T05:19:52;1.85;;;0.10;;
5416;SDS011;2731;50.754;12.990;2022-10-16T05:22:18;0.10;;;0.10;;
5416;SDS011;2731;50.754;12.990;2022-10-16T05:24:43;0.20;;;0.20;;
5416;SDS011;2731;50.754;12.990;2022-10-16T05:27:10;0.77;;;0.20;;
5416;SDS011;2731;50.754;12.990;2022-10-16T05:29:37;1.65;;;0.30;;
5416;SDS011;2731;50.754;12.990;2022-10-16T05:32:03;0.52;;;0.52;;
5416;SDS011;2731;50.754;12.990;2022-10-16T05:34:31;0.40;;;0.20;;
5416;SDS011;2731;50.754;12.990;2022-10-16T05:36:59;0.10;;;0.10;;
5416;SDS011;2731;50.754;12.990;2022-10-16T05:39:24;0.52;;;0.22;;
5416;SDS011;2731;50.754;12.990;2022-10-16T05:41:54;0.30;;;0.30;;
5416;SDS011;2731;50.754;12.990;2022-10-16T05:44:22;0.30;;;0.25;;
5416;SDS011;2731;50.754;12.990;2022-10-16T05:46:50;0.38;;;0.20;;
5416;SDS011;2731;50.754;12.990;2022-10-16T05:49:16;0.88;;;0.20;;
5416;SDS011;2731;50.754;12.990;2022-10-16T05:51:43;1.73;;;0.32;;
5416;SDS011;2731;50.754;12.990;2022-10-16T05:54:09;0.20;;;0.20;;
5416;SDS011;2731;50.754;12.990;2022-10-16T05:56:37;0.50;;;0.20;;
5416;SDS011;2731;50.754;12.990;2022-10-16T05:59:07;0.40;;;0.38;;
5416;SDS011;2731;50.754;12.990;2022-10-16T06:01:32;0.60;;;0.43;;
5416;SDS011;2731;50.754;12.990;2022-10-16T06:03:58;0.73;;;0.47;;
5416;SDS011;2731;50.754;12.990;2022-10-16T06:06:26;0.10;;;0.10;;
5416;SDS011;2731;50.754;12.990;2022-10-16T06:08:52;0.15;;;0.15;;
5416;SDS011;2731;50.754;12.990;2022-10-16T06:11:22;0.20;;;0.20;;
5416;SDS011;2731;50.754;12.990;2022-10-16T06:13:53;0.20;;;0.20;;
5416;SDS011;2731;50.754;12.990;2022-10-16T06:16:23;0.63;;;0.40;;
5416;SDS011;2731;50.754;12.990;2022-10-16T06:18:54;0.45;;;0.45;;
5416;SDS011;2731;50.754;12.990;2022-10-16T06:21:22;0.30;;;0.28;;
5416;SDS011;2731;50.754;12.990;2022-10-16T06:23:55;0.13;;;0.13;;
5416;SDS011;2731;50.754;12.990;2022-10-16T06:26:24;0.40;;;0.30;;
5416;SDS011;2731;50.754;12.990;2022-10-16T06:28:57;0.25;;;0.25;;
5416;SDS011;2731;50.754;12.990;2022-10-16T06:31:26;0.20;;;0.20;;
5416;SDS011;2731;50.754;12.990;2022-10-16T06:33:57;0.20;;;0.20;;
5416;SDS011;2731;50.754;12.990;2022-10-16T06:36:24;0.32;;;0.20;;
5416;SDS011;2731;50.754;12.990;2022-10-16T06:38:51;0.20;;;0.20;;
5416;SDS011;2731;50.754;12.990;2022-10-16T06:41:19;0.50;;;0.30;;
5416;SDS011;2731;50.754;12.990;2022-10-16T06:43:46;0.30;;;0.30;;
5416;SDS011;2731;50.754;12.990;2022-10-16T06:46:12;0.45;;;0.43;;
5416;SDS011;2731;50.754;12.990;2022-10-16T06:48:40;1.10;;;0.35;;
5416;SDS011;2731;50.754;12.990;2022-10-16T06:51:13;0.45;;;0.35;;
5416;SDS011;2731;50.754;12.990;2022-10-16T06:53:46;0.35;;;0.20;;
5416;SDS011;2731;50.754;12.990;2022-10-16T06:56:32;0.20;;;0.17;;
5416;SDS011;2731;50.754;12.990;2022-10-16T06:59:03;0.20;;;0.20;;
5416;SDS011;2731;50.754;12.990;2022-10-16T07:01:29;0.40;;;0.40;;
5416;SDS011;2731;50.754;12.990;2022-10-16T07:03:58;0.25;;;0.20;;
5416;SDS011;2731;50.754;12.990;2022-10-16T07:06:27;0.25;;;0.25;;
5416;SDS011;2731;50.754;12.990;2022-10-16T07:08:56;0.50;;;0.35;;
5416;SDS011;2731;50.754;12.990;2022-10-16T07:11:23;0.22;;;0.20;;
5416;SDS011;2731;50.754;12.990;2022-10-16T07:13:49;0.28;;;0.20;;
5416;SDS011;2731;50.754;12.990;2022-10-16T07:16:18;0.70;;;0.50;;
5416;SDS011;2731;50.754;12.990;2022-10-16T07:21:16;0.43;;;0.38;;
5416;SDS011;2731;50.754;12.990;2022-10-16T07:23:44;2.45;;;0.43;;
5416;SDS011;2731;50.754;12.990;2022-10-16T07:26:11;0.30;;;0.30;;
5416;SDS011;2731;50.754;12.990;2022-10-16T07:28:39;1.10;;;0.38;;
5416;SDS011;2731;50.754;12.990;2022-10-16T07:31:06;0.30;;;0.30;;
5416;SDS011;2731;50.754;12.990;2022-10-16T07:33:34;0.32;;;0.32;;
5416;SDS011;2731;50.754;12.990;2022-10-16T07:36:00;0.30;;;0.30;;
5416;SDS011;2731;50.754;12.990;2022-10-16T07:38:30;1.10;;;0.40;;
5416;SDS011;2731;50.754;12.990;2022-10-16T07:41:00;1.08;;;0.55;;
5416;SDS011;2731;50.754;12.990;2022-10-16T07:43:28;0.40;;;0.35;;
5416;SDS011;2731;50.754;12.990;2022-10-16T07:45:53;0.60;;;0.60;;
5416;SDS011;2731;50.754;12.990;2022-10-16T07:48:21;0.50;;;0.50;;
5416;SDS011;2731;50.754;12.990;2022-10-16T07:50:48;0.88;;;0.50;;
5416;SDS011;2731;50.754;12.990;2022-10-16T07:53:15;0.60;;;0.55;;
5416;SDS011;2731;50.754;12.990;2022-10-16T07:55:41;0.60;;;0.60;;
5416;SDS011;2731;50.754;12.990;2022-10-16T07:58:09;0.35;;;0.35;;
5416;SDS011;2731;50.754;12.990;2022-10-16T08:00:36;0.50;;;0.50;;
5416;SDS011;2731;50.754;12.990;2022-10-16T08:03:04;0.60;;;0.50;;
5416;SDS011;2731;50.754;12.990;2022-10-16T08:05:30;0.60;;;0.60;;
5416;SDS011;2731;50.754;12.990;2022-10-16T08:07:57;0.40;;;0.40;;
5416;SDS011;2731;50.754;12.990;2022-10-16T08:10:24;0.55;;;0.50;;
5416;SDS011;2731;50.754;12.990;2022-10-16T08:12:50;0.40;;;0.32;;
5416;SDS011;2731;50.754;12.990;2022-10-16T08:15:22;1.13;;;0.67;;
5416;SDS011;2731;50.754;12.990;2022-10-16T08:17:57;0.75;;;0.75;;
5416;SDS011;2731;50.754;12.990;2022-10-16T08:20:25;0.75;;;0.60;;
5416;SDS011;2731;50.754;12.990;2022-10-16T08:22:52;1.52;;;0.70;;
5416;SDS011;2731;50.754;12.990;2022-10-16T08:25:21;0.95;;;0.68;;
5416;SDS011;2731;50.754;12.990;2022-10-16T08:27:48;0.60;;;0.50;;
5416;SDS011;2731;50.754;12.990;2022-10-16T08:30:15;0.30;;;0.30;;
5416;SDS011;2731;50.754;12.990;2022-10-16T08:32:42;0.80;;;0.45;;
5416;SDS011;2731;50.754;12.990;2022-10-16T08:35:08;0.73;;;0.63;;
5416;SDS011;2731;50.754;12.990;2022-10-16T08:37:34;0.65;;;0.55;;
5416;SDS011;2731;50.754;12.990;2022-10-16T08:40:01;1.75;;;0.75;;
5416;SDS011;2731;50.754;12.990;2022-10-16T08:43:30;0.50;;;0.50;;
5416;SDS011;2731;50.754;12.990;2022-10-16T08:45:58;0.70;;;0.70;;
5416;SDS011;2731;50.754;12.990;2022-10-16T08:48:53;0.98;;;0.65;;
5416;SDS011;2731;50.754;12.990;2022-10-16T08:51:21;1.48;;;0.40;;
5416;SDS011;2731;50.754;12.990;2022-10-16T08:53:56;0.47;;;0.47;;
5416;SDS011;2731;50.754;12.990;2022-10-16T08:56:23;0.60;;;0.60;;
5416;SDS011;2731;50.754;12.990;2022-10-16T08:58:50;0.50;;;0.50;;
5416;SDS011;2731;50.754;12.990;2022-10-16T09:01:17;1.10;;;0.50;;
5416;SDS011;2731;50.754;12.990;2022-10-16T09:23:10;0.50;;;0.50;;
5416;SDS011;2731;50.754;12.990;2022-10-16T09:25:40;0.50;;;0.50;;
5416;SDS011;2731;50.754;12.990;2022-10-16T09:28:08;0.75;;;0.52;;
5416;SDS011;2731;50.754;12.990;2022-10-16T09:30:34;0.93;;;0.35;;
5416;SDS011;2731;50.754;12.990;2022-10-16T09:33:04;0.50;;;0.40;;
5416;SDS011;2731;50.754;12.990;2022-10-16T09:35:39;0.52;;;0.45;;
5416;SDS011;2731;50.754;12.990;2022-10-16T09:38:28;0.47;;;0.47;;
5416;SDS011;2731;50.754;12.990;2022-10-16T09:40:56;0.40;;;0.40;;
5416;SDS011;2731;50.754;12.990;2022-10-16T09:43:40;0.68;;;0.68;;
5416;SDS011;2731;50.754;12.990;2022-10-16T09:46:30;2.13;;;1.67;;
5416;SDS011;2731;50.754;12.990;2022-10-16T09:51:45;0.80;;;0.80;;
5416;SDS011;2731;50.754;12.990;2022-10-16T09:54:19;0.52;;;0.50;;
5416;SDS011;2731;50.754;12.990;2022-10-16T09:56:47;1.55;;;0.70;;
5416;SDS011;2731;50.754;12.990;2022-10-16T09:59:20;1.60;;;0.70;;
5416;SDS011;2731;50.754;12.990;2022-10-16T10:01:50;0.38;;;0.38;;
5416;SDS011;2731;50.754;12.990;2022-10-16T10:04:37;0.80;;;0.60;;
5416;SDS011;2731;50.754;12.990;2022-10-16T10:07:05;0.60;;;0.50;;
5416;SDS011;2731;50.754;12.990;2022-10-16T10:09:38;0.60;;;0.50;;
5416;SDS011;2731;50.754;12.990;2022-10-16T10:12:05;0.95;;;0.38;;
5416;SDS011;2731;50.754;12.990;2022-10-16T10:14:57;0.40;;;0.40;;
5416;SDS011;2731;50.754;12.990;2022-10-16T10:17:29;2.57;;;0.77;;
5416;SDS011;2731;50.754;12.990;2022-10-16T10:19:57;0.93;;;0.63;;
5416;SDS011;2731;50.754;12.990;2022-10-16T10:31:21;0.55;;;0.50;;
5416;SDS011;2731;50.754;12.990;2022-10-16T10:42:02;0.90;;;0.60;;
5416;SDS011;2731;50.754;12.990;2022-10-16T11:01:30;0.60;;;0.60;;
5416;SDS011;2731;50.754;12.990;2022-10-16T11:04:16;0.80;;;0.60;;
5416;SDS011;2731;50.754;12.990;2022-10-16T11:06:59;0.60;;;0.60;;
5416;SDS011;2731;50.754;12.990;2022-10-16T11:09:34;1.33;;;0.60;;
5416;SDS011;2731;50.754;12.990;2022-10-16T11:12:10;0.45;;;0.45;;
5416;SDS011;2731;50.754;12.990;2022-10-16T11:17:35;0.50;;;0.50;;
5416;SDS011;2731;50.754;12.990;2022-10-16T11:20:05;0.88;;;0.70;;
5416;SDS011;2731;50.754;12.990;2022-10-16T11:22:50;0.90;;;0.43;;
5416;SDS011;2731;50.754;12.990;2022-10-16T11:25:53;0.50;;;0.50;;
5416;SDS011;2731;50.754;12.990;2022-10-16T11:28:25;0.93;;;0.55;;
5416;SDS011;2731;50.754;12.990;2022-10-16T11:31:00;0.60;;;0.60;;
5416;SDS011;2731;50.754;12.990;2022-10-16T11:33:46;0.70;;;0.43;;
5416;SDS011;2731;50.754;12.990;2022-10-16T11:36:19;0.40;;;0.35;;
5416;SDS011;2731;50.754;12.990;2022-10-16T11:41:50;0.60;;;0.57;;
5416;SDS011;2731;50.754;12.990;2022-10-16T11:55:57;0.60;;;0.57;;
5416;SDS011;2731;50.754;12.990;2022-10-16T12:01:05;0.50;;;0.50;;
5416;SDS011;2731;50.754;12.990;2022-10-16T12:03:56;0.68;;;0.60;;
5416;SDS011;2731;50.754;12.990;2022-10-16T12:09:03;0.52;;;0.52;;
5416;SDS011;2731;50.754;12.990;2022-10-16T12:16:56;0.55;;;0.52;;
5416;SDS011;2731;50.754;12.990;2022-10-16T12:22:55;1.05;;;0.73;;
5416;SDS011;2731;50.754;12.990;2022-10-16T12:25:33;1.63;;;0.60;;
5416;SDS011;2731;50.754;12.990;2022-10-16T12:33:28;1.30;;;0.40;;
5416;SDS011;2731;50.754;12.990;2022-10-16T12:35:57;0.82;;;0.40;;
5416;SDS011;2731;50.754;12.990;2022-10-16T12:40:59;2.08;;;0.68;;
5416;SDS011;2731;50.754;12.990;2022-10-16T12:46:00;1.23;;;0.40;;
5416;SDS011;2731;50.754;12.990;2022-10-16T12:48:29;0.95;;;0.70;;
5416;SDS011;2731;50.754;12.990;2022-10-16T12:50:55;0.50;;;0.20;;
5416;SDS011;2731;50.754;12.990;2022-10-16T12:53:34;1.27;;;0.57;;
5416;SDS011;2731;50.754;12.990;2022-10-16T12:59:14;0.45;;;0.35;;
5416;SDS011;2731;50.754;12.990;2022-10-16T13:10:40;0.40;;;0.35;;
5416;SDS011;2731;50.754;12.990;2022-10-16T13:13:29;0.77;;;0.50;;
5416;SDS011;2731;50.754;12.990;2022-10-16T13:16:27;0.68;;;0.50;;
5416;SDS011;2731;50.754;12.990;2022-10-16T13:19:11;2.90;;;0.60;;
5416;SDS011;2731;50.754;12.990;2022-10-16T13:30:38;0.40;;;0.35;;
5416;SDS011;2731;50.754;12.990;2022-10-16T13:35:50;0.35;;;0.35;;
5416;SDS011;2731;50.754;12.990;2022-10-16T13:40:55;0.30;;;0.30;;
5416;SDS011;2731;50.754;12.990;2022-10-16T13:46:03;1.55;;;0.38;;
5416;SDS011;2731;50.754;12.990;2022-10-16T13:48:31;0.60;;;0.60;;
5416;SDS011;2731;50.754;12.990;2022-10-16T13:51:02;0.50;;;0.50;;
5416;SDS011;2731;50.754;12.990;2022-10-16T13:53:36;0.60;;;0.40;;
5416;SDS011;2731;50.754;12.990;2022-10-16T13:56:03;0.82;;;0.52;;
5416;SDS011;2731;50.754;12.990;2022-10-16T13:58:30;0.50;;;0.50;;
5416;SDS011;2731;50.754;12.990;2022-10-16T14:01:04;0.55;;;0.45;;
5416;SDS011;2731;50.754;12.990;2022-10-16T14:03:40;0.40;;;0.32;;
5416;SDS011;2731;50.754;12.990;2022-10-16T14:06:06;0.70;;;0.45;;
5416;SDS011;2731;50.754;12.990;2022-10-16T14:08:41;0.43;;;0.40;;
5416;SDS011;2731;50.754;12.990;2022-10-16T14:11:09;0.40;;;0.40;;
5416;SDS011;2731;50.754;12.990;2022-10-16T14:13:39;0.50;;;0.50;;
5416;SDS011;2731;50.754;12.990;2022-10-16T14:16:10;0.47;;;0.35;;
5416;SDS011;2731;50.754;12.990;2022-10-16T14:18:42;0.55;;;0.50;;
5416;SDS011;2731;50.754;12.990;2022-10-16T14:21:22;1.00;;;0.60;;
5416;SDS011;2731;50.754;12.990;2022-10-16T14:23:54;1.70;;;0.40;;
5416;SDS011;2731;50.754;12.990;2022-10-16T14:26:30;0.70;;;0.45;;
5416;SDS011;2731;50.754;12.990;2022-10-16T14:29:10;0.40;;;0.40;;
5416;SDS011;2731;50.754;12.990;2022-10-16T14:31:40;0.52;;;0.52;;
5416;SDS011;2731;50.754;12.990;2022-10-16T14:34:24;0.47;;;0.43;;
5416;SDS011;2731;50.754;12.990;2022-10-16T14:37:09;0.65;;;0.60;;
5416;SDS011;2731;50.754;12.990;2022-10-16T14:39:51;0.47;;;0.40;;
5416;SDS011;2731;50.754;12.990;2022-10-16T14:42:21;0.40;;;0.40;;
5416;SDS011;2731;50.754;12.990;2022-10-16T14:44:50;1.02;;;0.40;;
5416;SDS011;2731;50.754;12.990;2022-10-16T14:47:23;0.88;;;0.65;;
5416;SDS011;2731;50.754;12.990;2022-10-16T14:49:53;1.00;;;0.50;;
5416;SDS011;2731;50.754;12.990;2022-10-16T14:52:23;1.05;;;0.70;;
5416;SDS011;2731;50.754;12.990;2022-10-16T14:54:49;0.50;;;0.50;;
5416;SDS011;2731;50.754;12.990;2022-10-16T14:57:16;0.50;;;0.50;;
5416;SDS011;2731;50.754;12.990;2022-10-16T14:59:43;0.55;;;0.55;;
5416;SDS011;2731;50.754;12.990;2022-10-16T15:02:29;1.50;;;0.80;;
5416;SDS011;2731;50.754;12.990;2022-10-16T15:04:58;0.85;;;0.60;;
5416;SDS011;2731;50.754;12.990;2022-10-16T15:07:33;0.50;;;0.50;;
5416;SDS011;2731;50.754;12.990;2022-10-16T15:09:59;2.10;;;0.43;;
5416;SDS011;2731;50.754;12.990;2022-10-16T15:12:26;1.13;;;0.65;;
5416;SDS011;2731;50.754;12.990;2022-10-16T15:14:53;0.47;;;0.40;;
5416;SDS011;2731;50.754;12.990;2022-10-16T15:17:21;1.35;;;0.70;;
5416;SDS011;2731;50.754;12.990;2022-10-16T15:19:49;0.43;;;0.40;;
5416;SDS011;2731;50.754;12.990;2022-10-16T15:22:18;0.90;;;0.80;;
5416;SDS011;2731;50.754;12.990;2022-10-16T15:24:49;1.27;;;0.40;;
5416;SDS011;2731;50.754;12.990;2022-10-16T15:27:15;0.55;;;0.40;;
5416;SDS011;2731;50.754;12.990;2022-10-16T15:29:41;0.45;;;0.45;;
5416;SDS011;2731;50.754;12.990;2022-10-16T15:32:06;0.68;;;0.45;;
5416;SDS011;2731;50.754;12.990;2022-10-16T15:34:35;1.45;;;0.60;;
5416;SDS011;2731;50.754;12.990;2022-10-16T15:37:03;1.00;;;0.63;;
5416;SDS011;2731;50.754;12.990;2022-10-16T15:39:28;1.40;;;0.60;;
5416;SDS011;2731;50.754;12.990;2022-10-16T15:41:55;0.57;;;0.57;;
5416;SDS011;2731;50.754;12.990;2022-10-16T15:44:20;0.57;;;0.40;;
5416;SDS011;2731;50.754;12.990;2022-10-16T15:46:49;0.90;;;0.57;;
5416;SDS011;2731;50.754;12.990;2022-10-16T15:49:16;1.30;;;0.50;;
5416;SDS011;2731;50.754;12.990;2022-10-16T15:51:42;0.75;;;0.60;;
5416;SDS011;2731;50.754;12.990;2022-10-16T15:54:09;0.63;;;0.57;;
5416;SDS011;2731;50.754;12.990;2022-10-16T15:56:34;0.40;;;0.40;;
5416;SDS011;2731;50.754;12.990;2022-10-16T15:59:04;0.82;;;0.75;;
5416;SDS011;2731;50.754;12.990;2022-10-16T16:01:33;0.88;;;0.70;;
5416;SDS011;2731;50.754;12.990;2022-10-16T16:04:03;0.70;;;0.70;;
5416;SDS011;2731;50.754;12.990;2022-10-16T16:06:31;1.25;;;0.77;;
5416;SDS011;2731;50.754;12.990;2022-10-16T16:08:57;0.85;;;0.60;;
5416;SDS011;2731;50.754;12.990;2022-10-16T16:11:24;2.20;;;0.93;;
5416;SDS011;2731;50.754;12.990;2022-10-16T16:13:50;0.65;;;0.57;;
5416;SDS011;2731;50.754;12.990;2022-10-16T16:16:16;0.80;;;0.80;;
5416;SDS011;2731;50.754;12.990;2022-10-16T16:18:46;1.02;;;0.80;;
5416;SDS011;2731;50.754;12.990;2022-10-16T16:21:15;1.45;;;0.65;;
5416;SDS011;2731;50.754;12.990;2022-10-16T16:23:41;0.98;;;0.80;;
5416;SDS011;2731;50.754;12.990;2022-10-16T16:26:26;1.20;;;0.70;;
5416;SDS011;2731;50.754;12.990;2022-10-16T16:29:04;1.48;;;0.98;;
5416;SDS011;2731;50.754;12.990;2022-10-16T16:31:31;1.65;;;0.70;;
5416;SDS011;2731;50.754;12.990;2022-10-16T16:33:58;1.95;;;0.95;;
5416;SDS011;2731;50.754;12.990;2022-10-16T16:36:25;1.27;;;0.90;;
5416;SDS011;2731;50.754;12.990;2022-10-16T16:38:51;2.35;;;1.00;;
5416;SDS011;2731;50.754;12.990;2022-10-16T16:41:22;1.10;;;0.90;;
5416;SDS011;2731;50.754;12.990;2022-10-16T16:43:52;2.00;;;1.27;;
5416;SDS011;2731;50.754;12.990;2022-10-16T16:46:19;5.55;;;1.38;;
5416;SDS011;2731;50.754;12.990;2022-10-16T16:48:46;2.33;;;1.27;;
5416;SDS011;2731;50.754;12.990;2022-10-16T16:51:14;2.58;;;1.10;;
5416;SDS011;2731;50.754;12.990;2022-10-16T16:53:44;3.03;;;1.40;;
5416;SDS011;2731;50.754;12.990;2022-10-16T16:56:30;4.75;;;1.95;;
5416;SDS011;2731;50.754;12.990;2022-10-16T16:58:56;2.83;;;1.50;;
5416;SDS011;2731;50.754;12.990;2022-10-16T17:01:23;1.85;;;1.30;;
5416;SDS011;2731;50.754;12.990;2022-10-16T17:03:52;2.90;;;1.75;;
5416;SDS011;2731;50.754;12.990;2022-10-16T17:06:26;2.47;;;1.50;;
5416;SDS011;2731;50.754;12.990;2022-10-16T17:11:25;2.17;;;1.70;;
5416;SDS011;2731;50.754;12.990;2022-10-16T17:13:54;5.95;;;2.13;;
5416;SDS011;2731;50.754;12.990;2022-10-16T17:16:23;3.78;;;2.22;;
5416;SDS011;2731;50.754;12.990;2022-10-16T17:18:52;3.47;;;2.50;;
5416;SDS011;2731;50.754;12.990;2022-10-16T17:21:22;3.35;;;2.28;;
5416;SDS011;2731;50.754;12.990;2022-10-16T17:23:50;3.63;;;2.22;;
5416;SDS011;2731;50.754;12.990;2022-10-16T17:26:18;2.92;;;2.05;;
5416;SDS011;2731;50.754;12.990;2022-10-16T17:28:44;3.85;;;2.30;;
5416;SDS011;2731;50.754;12.990;2022-10-16T17:31:11;3.38;;;2.20;;
5416;SDS011;2731;50.754;12.990;2022-10-16T17:33:42;3.35;;;2.08;;
5416;SDS011;2731;50.754;12.990;2022-10-16T17:36:11;4.25;;;2.33;;
5416;SDS011;2731;50.754;12.990;2022-10-16T17:38:41;4.07;;;1.90;;
5416;SDS011;2731;50.754;12.990;2022-10-16T17:41:24;4.88;;;2.17;;
5416;SDS011;2731;50.754;12.990;2022-10-16T17:43:54;3.83;;;2.05;;
5416;SDS011;2731;50.754;12.990;2022-10-16T17:46:22;2.80;;;2.00;;
5416;SDS011;2731;50.754;12.990;2022-10-16T17:48:51;4.60;;;2.53;;
5416;SDS011;2731;50.754;12.990;2022-10-16T17:51:24;4.05;;;2.15;;
5416;SDS011;2731;50.754;12.990;2022-10-16T17:53:54;2.33;;;1.80;;